sensor_id;sensor_type;location;lat;lon;timestamp;temperature;humidity
12847;DHT22;6492;48.128;8.320;2024-02-21T00:03:20;0.10;71.90
12847;DHT22;6492;48.128;8.320;2024-02-21T00:07:23;0.10;72.00
12847;DHT22;6492;48.128;8.320;2024-02-21T00:11:24;0.20;72.00
12847;DHT22;6492;48.128;8.320;2024-02-21T00:15:32;0.30;72.40
12847;DHT22;6492;48.128;8.320;2024-02-21T00:19:34;0.30;72.50
12847;DHT22;6492;48.128;8.320;2024-02-21T00:23:37;0.40;72.70
12847;DHT22;6492;48.128;8.320;2024-02-21T00:27:39;0.50;73.10
12847;DHT22;6492;48.128;8.320;2024-02-21T00:31:40;0.60;73.20
12847;DHT22;6492;48.128;8.320;2024-02-21T00:35:42;0.70;73.30
12847;DHT22;6492;48.128;8.320;2024-02-21T00:39:45;0.80;73.30
12847;DHT22;6492;48.128;8.320;2024-02-21T00:43:47;0.80;72.90
12847;DHT22;6492;48.128;8.320;2024-02-21T00:47:50;0.80;72.50
12847;DHT22;6492;48.128;8.320;2024-02-21T00:51:52;0.70;72.20
12847;DHT22;6492;48.128;8.320;2024-02-21T00:55:55;0.70;72.10
12847;DHT22;6492;48.128;8.320;2024-02-21T00:59:57;0.70;72.00
12847;DHT22;6492;48.128;8.320;2024-02-21T01:03:59;0.70;71.70
12847;DHT22;6492;48.128;8.320;2024-02-21T01:08:00;0.70;71.70
12847;DHT22;6492;48.128;8.320;2024-02-21T01:12:04;0.70;71.60
12847;DHT22;6492;48.128;8.320;2024-02-21T01:16:06;0.70;71.60
12847;DHT22;6492;48.128;8.320;2024-02-21T01:20:09;0.70;71.30
12847;DHT22;6492;48.128;8.320;2024-02-21T01:24:11;0.70;71.20
12847;DHT22;6492;48.128;8.320;2024-02-21T01:28:14;0.70;71.20
12847;DHT22;6492;48.128;8.320;2024-02-21T01:32:16;0.70;71.20
12847;DHT22;6492;48.128;8.320;2024-02-21T01:36:17;0.70;71.20
12847;DHT22;6492;48.128;8.320;2024-02-21T01:40:19;0.80;71.20
12847;DHT22;6492;48.128;8.320;2024-02-21T01:44:22;0.80;71.20
12847;DHT22;6492;48.128;8.320;2024-02-21T01:48:25;0.80;71.10
12847;DHT22;6492;48.128;8.320;2024-02-21T01:52:27;0.80;70.90
12847;DHT22;6492;48.128;8.320;2024-02-21T01:56:29;0.90;71.20
12847;DHT22;6492;48.128;8.320;2024-02-21T02:00:32;0.90;71.10
12847;DHT22;6492;48.128;8.320;2024-02-21T02:04:35;1.00;70.90
12847;DHT22;6492;48.128;8.320;2024-02-21T02:08:37;1.00;70.60
12847;DHT22;6492;48.128;8.320;2024-02-21T02:12:51;1.00;70.30
12847;DHT22;6492;48.128;8.320;2024-02-21T02:16:54;1.00;69.80
12847;DHT22;6492;48.128;8.320;2024-02-21T02:20:56;1.00;69.30
12847;DHT22;6492;48.128;8.320;2024-02-21T02:24:59;1.00;69.10
12847;DHT22;6492;48.128;8.320;2024-02-21T02:29:01;1.00;69.40
12847;DHT22;6492;48.128;8.320;2024-02-21T02:33:03;1.10;69.40
12847;DHT22;6492;48.128;8.320;2024-02-21T02:37:05;1.20;68.90
12847;DHT22;6492;48.128;8.320;2024-02-21T02:41:08;1.20;68.30
12847;DHT22;6492;48.128;8.320;2024-02-21T02:45:10;1.30;67.70
12847;DHT22;6492;48.128;8.320;2024-02-21T02:49:12;1.40;66.20
12847;DHT22;6492;48.128;8.320;2024-02-21T02:53:13;1.40;64.60
12847;DHT22;6492;48.128;8.320;2024-02-21T02:57:17;1.50;63.20
12847;DHT22;6492;48.128;8.320;2024-02-21T03:01:18;1.50;61.80
12847;DHT22;6492;48.128;8.320;2024-02-21T03:05:21;1.50;61.20
12847;DHT22;6492;48.128;8.320;2024-02-21T03:09:23;1.40;60.30
12847;DHT22;6492;48.128;8.320;2024-02-21T03:13:26;1.40;59.90
12847;DHT22;6492;48.128;8.320;2024-02-21T03:17:31;1.30;59.60
12847;DHT22;6492;48.128;8.320;2024-02-21T03:21:34;1.20;59.50
12847;DHT22;6492;48.128;8.320;2024-02-21T03:25:36;1.20;59.30
12847;DHT22;6492;48.128;8.320;2024-02-21T03:29:39;1.10;59.00
12847;DHT22;6492;48.128;8.320;2024-02-21T03:33:42;1.00;59.20
12847;DHT22;6492;48.128;8.320;2024-02-21T03:37:45;0.90;58.60
12847;DHT22;6492;48.128;8.320;2024-02-21T03:41:47;0.90;58.80
12847;DHT22;6492;48.128;8.320;2024-02-21T03:45:50;0.80;58.80
12847;DHT22;6492;48.128;8.320;2024-02-21T03:49:51;0.80;58.80
12847;DHT22;6492;48.128;8.320;2024-02-21T03:53:53;0.70;59.00
12847;DHT22;6492;48.128;8.320;2024-02-21T03:57:55;0.60;58.60
12847;DHT22;6492;48.128;8.320;2024-02-21T04:01:58;0.50;58.80
12847;DHT22;6492;48.128;8.320;2024-02-21T04:06:01;0.50;59.10
12847;DHT22;6492;48.128;8.320;2024-02-21T04:10:03;0.40;59.10
12847;DHT22;6492;48.128;8.320;2024-02-21T04:14:05;0.40;59.80
12847;DHT22;6492;48.128;8.320;2024-02-21T04:18:08;0.40;60.60
12847;DHT22;6492;48.128;8.320;2024-02-21T04:22:10;0.40;60.90
12847;DHT22;6492;48.128;8.320;2024-02-21T04:26:11;0.40;60.90
12847;DHT22;6492;48.128;8.320;2024-02-21T04:30:14;0.30;61.30
12847;DHT22;6492;48.128;8.320;2024-02-21T04:34:17;0.30;62.30
12847;DHT22;6492;48.128;8.320;2024-02-21T04:38:19;0.40;63.20
12847;DHT22;6492;48.128;8.320;2024-02-21T04:42:20;0.30;63.70
12847;DHT22;6492;48.128;8.320;2024-02-21T04:46:22;0.40;64.40
12847;DHT22;6492;48.128;8.320;2024-02-21T04:50:25;0.50;64.40
12847;DHT22;6492;48.128;8.320;2024-02-21T04:54:27;0.50;63.60
12847;DHT22;6492;48.128;8.320;2024-02-21T04:58:29;0.50;62.80
12847;DHT22;6492;48.128;8.320;2024-02-21T05:02:31;0.40;61.90
12847;DHT22;6492;48.128;8.320;2024-02-21T05:06:38;0.30;61.20
12847;DHT22;6492;48.128;8.320;2024-02-21T05:10:40;0.30;61.30
12847;DHT22;6492;48.128;8.320;2024-02-21T05:14:42;0.20;61.20
12847;DHT22;6492;48.128;8.320;2024-02-21T05:18:44;0.10;61.10
12847;DHT22;6492;48.128;8.320;2024-02-21T05:22:54;0.10;60.40
12847;DHT22;6492;48.128;8.320;2024-02-21T05:26:56;-0.10;59.80
12847;DHT22;6492;48.128;8.320;2024-02-21T05:31:01;-0.30;60.00
12847;DHT22;6492;48.128;8.320;2024-02-21T05:35:03;-0.30;60.70
12847;DHT22;6492;48.128;8.320;2024-02-21T05:39:06;-0.30;61.70
12847;DHT22;6492;48.128;8.320;2024-02-21T05:43:08;-0.30;62.30
12847;DHT22;6492;48.128;8.320;2024-02-21T05:47:10;-0.30;62.90
12847;DHT22;6492;48.128;8.320;2024-02-21T05:51:15;-0.30;63.10
12847;DHT22;6492;48.128;8.320;2024-02-21T05:55:18;-0.30;63.10
12847;DHT22;6492;48.128;8.320;2024-02-21T05:59:20;-0.30;62.90
12847;DHT22;6492;48.128;8.320;2024-02-21T06:03:22;-0.40;63.10
12847;DHT22;6492;48.128;8.320;2024-02-21T06:07:30;-0.50;62.40
12847;DHT22;6492;48.128;8.320;2024-02-21T06:11:37;-0.50;62.40
12847;DHT22;6492;48.128;8.320;2024-02-21T06:15:39;-0.50;63.10
12847;DHT22;6492;48.128;8.320;2024-02-21T06:19:42;-0.50;62.90
12847;DHT22;6492;48.128;8.320;2024-02-21T06:23:44;-0.60;61.80
12847;DHT22;6492;48.128;8.320;2024-02-21T06:27:47;-0.70;61.70
12847;DHT22;6492;48.128;8.320;2024-02-21T06:31:49;-0.70;62.70
12847;DHT22;6492;48.128;8.320;2024-02-21T06:35:51;-0.60;63.20
12847;DHT22;6492;48.128;8.320;2024-02-21T06:39:54;-0.60;63.20
12847;DHT22;6492;48.128;8.320;2024-02-21T06:43:57;-0.60;62.30
12847;DHT22;6492;48.128;8.320;2024-02-21T06:48:00;-0.70;61.80
12847;DHT22;6492;48.128;8.320;2024-02-21T06:52:01;-0.80;61.70
12847;DHT22;6492;48.128;8.320;2024-02-21T06:56:04;-0.80;62.50
12847;DHT22;6492;48.128;8.320;2024-02-21T07:00:21;-0.70;62.80
12847;DHT22;6492;48.128;8.320;2024-02-21T07:04:23;-0.70;63.10
12847;DHT22;6492;48.128;8.320;2024-02-21T07:12:52;-0.50;64.40
12847;DHT22;6492;48.128;8.320;2024-02-21T07:16:55;-0.30;65.70
12847;DHT22;6492;48.128;8.320;2024-02-21T07:20:57;-0.10;66.20
12847;DHT22;6492;48.128;8.320;2024-02-21T07:25:21;0.20;65.10
12847;DHT22;6492;48.128;8.320;2024-02-21T07:29:22;0.30;63.40
12847;DHT22;6492;48.128;8.320;2024-02-21T07:33:26;0.50;60.20
12847;DHT22;6492;48.128;8.320;2024-02-21T07:37:38;0.80;55.50
12847;DHT22;6492;48.128;8.320;2024-02-21T07:41:40;1.00;47.40
12847;DHT22;6492;48.128;8.320;2024-02-21T07:45:44;1.30;39.30
12847;DHT22;6492;48.128;8.320;2024-02-21T07:49:47;1.70;32.60
12847;DHT22;6492;48.128;8.320;2024-02-21T07:53:49;2.00;28.10
12847;DHT22;6492;48.128;8.320;2024-02-21T07:57:51;2.40;26.70
12847;DHT22;6492;48.128;8.320;2024-02-21T08:01:59;2.70;24.10
12847;DHT22;6492;48.128;8.320;2024-02-21T08:06:03;2.90;22.70
12847;DHT22;6492;48.128;8.320;2024-02-21T08:10:06;3.20;22.20
12847;DHT22;6492;48.128;8.320;2024-02-21T08:14:08;3.30;20.00
12847;DHT22;6492;48.128;8.320;2024-02-21T08:18:10;3.60;17.80
12847;DHT22;6492;48.128;8.320;2024-02-21T08:22:15;3.90;17.50
12847;DHT22;6492;48.128;8.320;2024-02-21T08:26:17;4.20;12.70
12847;DHT22;6492;48.128;8.320;2024-02-21T08:30:19;4.50;13.40
12847;DHT22;6492;48.128;8.320;2024-02-21T08:34:21;4.70;13.90
12847;DHT22;6492;48.128;8.320;2024-02-21T08:38:24;4.90;12.20
12847;DHT22;6492;48.128;8.320;2024-02-21T08:42:29;5.10;11.60
12847;DHT22;6492;48.128;8.320;2024-02-21T08:46:31;5.40;10.60
12847;DHT22;6492;48.128;8.320;2024-02-21T08:50:33;5.60;10.90
12847;DHT22;6492;48.128;8.320;2024-02-21T08:54:36;5.90;9.00
12847;DHT22;6492;48.128;8.320;2024-02-21T08:58:39;6.10;10.50
12847;DHT22;6492;48.128;8.320;2024-02-21T09:02:42;6.40;12.90
12847;DHT22;6492;48.128;8.320;2024-02-21T09:06:46;6.60;13.30
12847;DHT22;6492;48.128;8.320;2024-02-21T09:10:49;6.90;12.60
12847;DHT22;6492;48.128;8.320;2024-02-21T09:14:51;7.10;10.30
12847;DHT22;6492;48.128;8.320;2024-02-21T09:19:12;7.30;7.60
12847;DHT22;6492;48.128;8.320;2024-02-21T09:23:14;7.60;8.20
12847;DHT22;6492;48.128;8.320;2024-02-21T09:27:18;7.80;7.50
12847;DHT22;6492;48.128;8.320;2024-02-21T09:31:20;8.20;7.10
12847;DHT22;6492;48.128;8.320;2024-02-21T09:35:22;8.50;1.30
12847;DHT22;6492;48.128;8.320;2024-02-21T09:39:31;8.70;1.00
12847;DHT22;6492;48.128;8.320;2024-02-21T09:43:34;8.90;1.00
12847;DHT22;6492;48.128;8.320;2024-02-21T09:47:46;9.20;1.00
12847;DHT22;6492;48.128;8.320;2024-02-21T09:51:54;9.30;1.00
12847;DHT22;6492;48.128;8.320;2024-02-21T09:55:57;9.60;1.00
12847;DHT22;6492;48.128;8.320;2024-02-21T10:00:01;9.90;1.00
12847;DHT22;6492;48.128;8.320;2024-02-21T10:04:08;10.20;1.00
12847;DHT22;6492;48.128;8.320;2024-02-21T10:08:15;10.50;1.00
12847;DHT22;6492;48.128;8.320;2024-02-21T10:12:20;10.70;1.00
12847;DHT22;6492;48.128;8.320;2024-02-21T10:16:23;11.10;1.00
12847;DHT22;6492;48.128;8.320;2024-02-21T10:20:25;11.40;1.00
12847;DHT22;6492;48.128;8.320;2024-02-21T10:24:27;11.60;1.00
12847;DHT22;6492;48.128;8.320;2024-02-21T10:28:30;11.90;1.00
12847;DHT22;6492;48.128;8.320;2024-02-21T10:32:34;12.20;1.00
12847;DHT22;6492;48.128;8.320;2024-02-21T10:36:35;12.40;1.00
12847;DHT22;6492;48.128;8.320;2024-02-21T10:40:39;12.50;1.00
12847;DHT22;6492;48.128;8.320;2024-02-21T10:44:43;12.50;1.00
12847;DHT22;6492;48.128;8.320;2024-02-21T10:49:01;12.70;1.00
12847;DHT22;6492;48.128;8.320;2024-02-21T10:53:17;12.70;1.00
12847;DHT22;6492;48.128;8.320;2024-02-21T10:57:26;12.50;1.00
12847;DHT22;6492;48.128;8.320;2024-02-21T11:01:30;12.40;1.00
12847;DHT22;6492;48.128;8.320;2024-02-21T11:05:34;12.50;1.00
12847;DHT22;6492;48.128;8.320;2024-02-21T11:09:36;12.80;1.00
12847;DHT22;6492;48.128;8.320;2024-02-21T11:13:38;13.00;1.00
12847;DHT22;6492;48.128;8.320;2024-02-21T11:17:39;13.20;1.00
12847;DHT22;6492;48.128;8.320;2024-02-21T11:21:42;13.50;1.00
12847;DHT22;6492;48.128;8.320;2024-02-21T11:25:44;13.70;1.00
12847;DHT22;6492;48.128;8.320;2024-02-21T11:30:05;13.70;1.00
12847;DHT22;6492;48.128;8.320;2024-02-21T11:34:09;14.00;1.00
12847;DHT22;6492;48.128;8.320;2024-02-21T11:38:13;14.40;1.00
12847;DHT22;6492;48.128;8.320;2024-02-21T11:42:16;14.30;1.00
12847;DHT22;6492;48.128;8.320;2024-02-21T11:46:18;14.40;1.00
12847;DHT22;6492;48.128;8.320;2024-02-21T11:50:20;14.30;1.00
12847;DHT22;6492;48.128;8.320;2024-02-21T11:54:26;14.30;1.00
12847;DHT22;6492;48.128;8.320;2024-02-21T11:58:28;14.30;1.00
12847;DHT22;6492;48.128;8.320;2024-02-21T12:02:31;14.50;1.00
12847;DHT22;6492;48.128;8.320;2024-02-21T12:06:33;14.40;1.00
12847;DHT22;6492;48.128;8.320;2024-02-21T12:10:36;14.30;1.00
12847;DHT22;6492;48.128;8.320;2024-02-21T12:14:38;14.20;1.00
12847;DHT22;6492;48.128;8.320;2024-02-21T12:18:40;14.00;1.00
12847;DHT22;6492;48.128;8.320;2024-02-21T12:23:00;14.00;1.00
12847;DHT22;6492;48.128;8.320;2024-02-21T12:27:03;13.90;1.00
12847;DHT22;6492;48.128;8.320;2024-02-21T12:31:06;14.00;1.00
12847;DHT22;6492;48.128;8.320;2024-02-21T12:35:08;13.50;1.00
12847;DHT22;6492;48.128;8.320;2024-02-21T12:39:10;13.50;1.00
12847;DHT22;6492;48.128;8.320;2024-02-21T12:43:13;13.40;1.00
12847;DHT22;6492;48.128;8.320;2024-02-21T12:47:15;13.20;1.00
12847;DHT22;6492;48.128;8.320;2024-02-21T12:51:19;13.40;1.00
12847;DHT22;6492;48.128;8.320;2024-02-21T12:55:21;13.60;1.00
12847;DHT22;6492;48.128;8.320;2024-02-21T12:59:25;13.50;1.00
12847;DHT22;6492;48.128;8.320;2024-02-21T13:03:28;13.50;1.00
12847;DHT22;6492;48.128;8.320;2024-02-21T13:07:31;13.60;1.00
12847;DHT22;6492;48.128;8.320;2024-02-21T13:11:33;13.50;1.00
12847;DHT22;6492;48.128;8.320;2024-02-21T13:15:37;13.20;1.00
12847;DHT22;6492;48.128;8.320;2024-02-21T13:19:43;13.40;1.00
12847;DHT22;6492;48.128;8.320;2024-02-21T13:23:45;13.70;1.00
12847;DHT22;6492;48.128;8.320;2024-02-21T13:27:46;13.60;1.00
12847;DHT22;6492;48.128;8.320;2024-02-21T13:31:50;13.70;1.00
12847;DHT22;6492;48.128;8.320;2024-02-21T13:36:05;13.40;1.00
12847;DHT22;6492;48.128;8.320;2024-02-21T13:40:07;13.20;1.00
12847;DHT22;6492;48.128;8.320;2024-02-21T13:44:10;13.00;1.00
12847;DHT22;6492;48.128;8.320;2024-02-21T13:48:14;13.00;1.00
12847;DHT22;6492;48.128;8.320;2024-02-21T13:52:16;12.70;1.00
12847;DHT22;6492;48.128;8.320;2024-02-21T13:56:17;12.50;1.00
12847;DHT22;6492;48.128;8.320;2024-02-21T14:00:19;12.30;1.00
12847;DHT22;6492;48.128;8.320;2024-02-21T14:04:23;12.20;1.00
12847;DHT22;6492;48.128;8.320;2024-02-21T14:08:24;12.20;1.00
12847;DHT22;6492;48.128;8.320;2024-02-21T14:12:26;12.20;1.00
12847;DHT22;6492;48.128;8.320;2024-02-21T14:16:28;12.30;1.00
12847;DHT22;6492;48.128;8.320;2024-02-21T14:20:31;12.30;1.00
12847;DHT22;6492;48.128;8.320;2024-02-21T14:24:33;12.30;1.00
12847;DHT22;6492;48.128;8.320;2024-02-21T14:28:34;12.00;1.00
12847;DHT22;6492;48.128;8.320;2024-02-21T14:32:36;11.90;1.00
12847;DHT22;6492;48.128;8.320;2024-02-21T14:36:39;11.70;1.00
12847;DHT22;6492;48.128;8.320;2024-02-21T14:40:41;11.70;1.00
12847;DHT22;6492;48.128;8.320;2024-02-21T14:44:43;12.00;1.00
12847;DHT22;6492;48.128;8.320;2024-02-21T14:48:45;12.10;1.00
12847;DHT22;6492;48.128;8.320;2024-02-21T14:52:48;12.00;1.00
12847;DHT22;6492;48.128;8.320;2024-02-21T14:56:50;11.90;1.00
12847;DHT22;6492;48.128;8.320;2024-02-21T15:00:52;11.60;1.00
12847;DHT22;6492;48.128;8.320;2024-02-21T15:04:54;11.40;1.00
12847;DHT22;6492;48.128;8.320;2024-02-21T15:08:57;11.40;1.00
12847;DHT22;6492;48.128;8.320;2024-02-21T15:13:00;11.20;1.00
12847;DHT22;6492;48.128;8.320;2024-02-21T15:17:01;11.30;1.00
12847;DHT22;6492;48.128;8.320;2024-02-21T15:21:04;11.20;1.00
12847;DHT22;6492;48.128;8.320;2024-02-21T15:25:08;11.00;1.00
12847;DHT22;6492;48.128;8.320;2024-02-21T15:29:15;10.90;1.00
12847;DHT22;6492;48.128;8.320;2024-02-21T15:33:16;10.70;1.00
12847;DHT22;6492;48.128;8.320;2024-02-21T15:37:18;10.60;1.00
12847;DHT22;6492;48.128;8.320;2024-02-21T15:41:21;10.50;1.00
12847;DHT22;6492;48.128;8.320;2024-02-21T15:45:23;10.40;1.00
12847;DHT22;6492;48.128;8.320;2024-02-21T15:49:25;10.20;1.00
12847;DHT22;6492;48.128;8.320;2024-02-21T15:53:27;9.90;1.00
12847;DHT22;6492;48.128;8.320;2024-02-21T15:57:30;9.70;1.00
12847;DHT22;6492;48.128;8.320;2024-02-21T16:01:51;9.60;1.00
12847;DHT22;6492;48.128;8.320;2024-02-21T16:05:52;9.50;1.00
12847;DHT22;6492;48.128;8.320;2024-02-21T16:09:55;9.30;1.00
12847;DHT22;6492;48.128;8.320;2024-02-21T16:14:01;9.30;1.00
12847;DHT22;6492;48.128;8.320;2024-02-21T16:18:03;9.20;1.00
12847;DHT22;6492;48.128;8.320;2024-02-21T16:22:07;9.10;1.00
12847;DHT22;6492;48.128;8.320;2024-02-21T16:26:09;9.10;1.00
12847;DHT22;6492;48.128;8.320;2024-02-21T16:30:13;9.00;1.00
12847;DHT22;6492;48.128;8.320;2024-02-21T16:34:17;8.90;1.00
12847;DHT22;6492;48.128;8.320;2024-02-21T16:38:18;8.80;1.00
12847;DHT22;6492;48.128;8.320;2024-02-21T16:42:20;8.80;1.00
12847;DHT22;6492;48.128;8.320;2024-02-21T16:46:23;8.90;1.00
12847;DHT22;6492;48.128;8.320;2024-02-21T16:50:26;8.80;1.00
12847;DHT22;6492;48.128;8.320;2024-02-21T16:54:28;8.80;1.00
12847;DHT22;6492;48.128;8.320;2024-02-21T16:58:30;8.90;1.00
12847;DHT22;6492;48.128;8.320;2024-02-21T17:02:38;8.90;1.00
12847;DHT22;6492;48.128;8.320;2024-02-21T17:06:40;8.80;1.00
12847;DHT22;6492;48.128;8.320;2024-02-21T17:10:43;8.90;1.00
12847;DHT22;6492;48.128;8.320;2024-02-21T17:14:45;8.90;1.00
12847;DHT22;6492;48.128;8.320;2024-02-21T17:18:48;9.00;1.00
12847;DHT22;6492;48.128;8.320;2024-02-21T17:22:50;8.90;1.00
12847;DHT22;6492;48.128;8.320;2024-02-21T17:26:52;8.90;1.00
12847;DHT22;6492;48.128;8.320;2024-02-21T17:30:54;8.90;1.00
12847;DHT22;6492;48.128;8.320;2024-02-21T17:34:59;8.90;1.00
12847;DHT22;6492;48.128;8.320;2024-02-21T17:39:01;9.00;1.00
12847;DHT22;6492;48.128;8.320;2024-02-21T17:43:08;9.00;1.00
12847;DHT22;6492;48.128;8.320;2024-02-21T17:47:12;9.00;1.00
12847;DHT22;6492;48.128;8.320;2024-02-21T17:51:15;9.00;1.00
12847;DHT22;6492;48.128;8.320;2024-02-21T17:55:17;8.90;1.00
12847;DHT22;6492;48.128;8.320;2024-02-21T17:59:24;8.90;1.00
12847;DHT22;6492;48.128;8.320;2024-02-21T18:03:34;9.00;1.00
12847;DHT22;6492;48.128;8.320;2024-02-21T18:08:00;9.10;1.00
12847;DHT22;6492;48.128;8.320;2024-02-21T18:12:03;9.10;1.00
12847;DHT22;6492;48.128;8.320;2024-02-21T18:16:06;9.00;1.00
12847;DHT22;6492;48.128;8.320;2024-02-21T18:20:09;9.10;1.00
12847;DHT22;6492;48.128;8.320;2024-02-21T18:24:13;9.40;1.00
12847;DHT22;6492;48.128;8.320;2024-02-21T18:28:15;9.40;1.00
12847;DHT22;6492;48.128;8.320;2024-02-21T18:32:17;9.30;1.00
12847;DHT22;6492;48.128;8.320;2024-02-21T18:36:19;9.40;1.00
12847;DHT22;6492;48.128;8.320;2024-02-21T18:40:22;9.40;1.00
12847;DHT22;6492;48.128;8.320;2024-02-21T18:44:23;9.40;1.00
12847;DHT22;6492;48.128;8.320;2024-02-21T18:48:25;9.40;1.00
12847;DHT22;6492;48.128;8.320;2024-02-21T18:52:27;9.40;1.00
12847;DHT22;6492;48.128;8.320;2024-02-21T18:56:30;9.30;1.00
12847;DHT22;6492;48.128;8.320;2024-02-21T19:00:32;9.20;1.00
12847;DHT22;6492;48.128;8.320;2024-02-21T19:04:34;9.30;1.00
12847;DHT22;6492;48.128;8.320;2024-02-21T19:08:39;9.30;1.00
12847;DHT22;6492;48.128;8.320;2024-02-21T19:12:42;9.30;1.00
12847;DHT22;6492;48.128;8.320;2024-02-21T19:16:56;9.40;1.00
12847;DHT22;6492;48.128;8.320;2024-02-21T19:20:58;9.40;1.00
12847;DHT22;6492;48.128;8.320;2024-02-21T19:24:59;9.50;1.00
12847;DHT22;6492;48.128;8.320;2024-02-21T19:29:08;9.40;1.00
12847;DHT22;6492;48.128;8.320;2024-02-21T19:33:12;9.50;1.00
12847;DHT22;6492;48.128;8.320;2024-02-21T19:37:14;9.50;1.00
12847;DHT22;6492;48.128;8.320;2024-02-21T19:41:16;9.50;1.00
12847;DHT22;6492;48.128;8.320;2024-02-21T19:45:20;9.50;1.00
12847;DHT22;6492;48.128;8.320;2024-02-21T19:49:23;9.40;1.00
12847;DHT22;6492;48.128;8.320;2024-02-21T19:53:25;9.40;1.00
12847;DHT22;6492;48.128;8.320;2024-02-21T19:57:28;9.40;1.00
12847;DHT22;6492;48.128;8.320;2024-02-21T20:01:38;9.30;1.00
12847;DHT22;6492;48.128;8.320;2024-02-21T20:05:40;9.40;1.00
12847;DHT22;6492;48.128;8.320;2024-02-21T20:09:46;9.30;1.00
12847;DHT22;6492;48.128;8.320;2024-02-21T20:13:48;9.30;1.00
12847;DHT22;6492;48.128;8.320;2024-02-21T20:17:51;9.30;1.00
12847;DHT22;6492;48.128;8.320;2024-02-21T20:21:55;9.30;1.00
12847;DHT22;6492;48.128;8.320;2024-02-21T20:25:57;9.20;1.00
12847;DHT22;6492;48.128;8.320;2024-02-21T20:30:01;9.10;1.00
12847;DHT22;6492;48.128;8.320;2024-02-21T20:34:04;9.20;1.00
12847;DHT22;6492;48.128;8.320;2024-02-21T20:38:06;9.20;1.00
12847;DHT22;6492;48.128;8.320;2024-02-21T20:42:08;9.10;1.00
12847;DHT22;6492;48.128;8.320;2024-02-21T20:46:10;8.90;1.00
12847;DHT22;6492;48.128;8.320;2024-02-21T20:50:13;8.80;1.00
12847;DHT22;6492;48.128;8.320;2024-02-21T20:54:15;8.80;1.00
12847;DHT22;6492;48.128;8.320;2024-02-21T20:58:17;8.80;1.00
12847;DHT22;6492;48.128;8.320;2024-02-21T21:02:19;8.70;1.00
12847;DHT22;6492;48.128;8.320;2024-02-21T21:06:22;8.70;1.00
12847;DHT22;6492;48.128;8.320;2024-02-21T21:10:24;8.90;1.00
12847;DHT22;6492;48.128;8.320;2024-02-21T21:14:26;8.90;1.00
12847;DHT22;6492;48.128;8.320;2024-02-21T21:18:28;9.00;1.00
12847;DHT22;6492;48.128;8.320;2024-02-21T21:22:33;9.20;1.00
12847;DHT22;6492;48.128;8.320;2024-02-21T21:26:51;9.20;1.00
12847;DHT22;6492;48.128;8.320;2024-02-21T21:30:53;9.10;1.00
12847;DHT22;6492;48.128;8.320;2024-02-21T21:34:56;9.10;1.00
12847;DHT22;6492;48.128;8.320;2024-02-21T21:39:00;9.20;1.00
12847;DHT22;6492;48.128;8.320;2024-02-21T21:43:05;9.20;1.00
12847;DHT22;6492;48.128;8.320;2024-02-21T21:47:07;9.30;1.00
12847;DHT22;6492;48.128;8.320;2024-02-21T21:51:10;9.40;1.00
12847;DHT22;6492;48.128;8.320;2024-02-21T21:55:13;9.40;1.00
12847;DHT22;6492;48.128;8.320;2024-02-21T21:59:28;9.30;1.00
12847;DHT22;6492;48.128;8.320;2024-02-21T22:03:29;9.30;1.00
12847;DHT22;6492;48.128;8.320;2024-02-21T22:07:31;9.30;1.00
12847;DHT22;6492;48.128;8.320;2024-02-21T22:11:35;9.30;1.00
12847;DHT22;6492;48.128;8.320;2024-02-21T22:15:37;9.30;1.00
12847;DHT22;6492;48.128;8.320;2024-02-21T22:19:39;9.20;1.00
12847;DHT22;6492;48.128;8.320;2024-02-21T22:23:41;9.10;1.00
12847;DHT22;6492;48.128;8.320;2024-02-21T22:27:46;9.00;1.00
12847;DHT22;6492;48.128;8.320;2024-02-21T22:31:48;8.80;1.00
12847;DHT22;6492;48.128;8.320;2024-02-21T22:35:59;8.80;1.00
12847;DHT22;6492;48.128;8.320;2024-02-21T22:40:01;8.70;1.00
12847;DHT22;6492;48.128;8.320;2024-02-21T22:44:04;8.70;1.00
12847;DHT22;6492;48.128;8.320;2024-02-21T22:48:06;8.60;1.00
12847;DHT22;6492;48.128;8.320;2024-02-21T22:52:08;8.50;1.00
12847;DHT22;6492;48.128;8.320;2024-02-21T22:56:10;9.20;1.00
12847;DHT22;6492;48.128;8.320;2024-02-21T23:00:15;8.40;1.00
12847;DHT22;6492;48.128;8.320;2024-02-21T23:04:17;8.40;1.00
12847;DHT22;6492;48.128;8.320;2024-02-21T23:08:18;8.30;1.00
12847;DHT22;6492;48.128;8.320;2024-02-21T23:12:20;8.20;1.00
12847;DHT22;6492;48.128;8.320;2024-02-21T23:16:24;8.20;1.00
12847;DHT22;6492;48.128;8.320;2024-02-21T23:20:26;8.20;1.00
12847;DHT22;6492;48.128;8.320;2024-02-21T23:24:27;8.10;1.00
12847;DHT22;6492;48.128;8.320;2024-02-21T23:28:29;8.00;1.00
12847;DHT22;6492;48.128;8.320;2024-02-21T23:32:32;7.90;1.00
12847;DHT22;6492;48.128;8.320;2024-02-21T23:36:36;7.80;1.30
12847;DHT22;6492;48.128;8.320;2024-02-21T23:40:37;7.60;2.70
12847;DHT22;6492;48.128;8.320;2024-02-21T23:44:39;7.50;3.70
12847;DHT22;6492;48.128;8.320;2024-02-21T23:48:43;7.40;4.80
12847;DHT22;6492;48.128;8.320;2024-02-21T23:52:45;7.20;6.60
12847;DHT22;6492;48.128;8.320;2024-02-21T23:56:47;7.10;8.20
